Changde, China
Current Conditions -  °F | °C
As of 10:00 AM on Saturday 22 Nov 2014 (Local Time) from ZGHA Reporting Station
Haze Haze  
Wind Chill: 68°   Ceiling: Unl
Heat Index: 68°   Visibility: 2.1mi
Dew Point: 55°   Wind: 7mph
Humidity: 64%   Direction: NA
Pressure: 30.12"   Gusts: NA
Location:  29.03°N, 111.68°E
Report Text: ZGHA 220200Z VRB03MPS 3500 HZ NSC 20/13 Q1020 NOSIG
Loading
Personal Weather Stations






























Interactive Weather Map New forecast layout! Learn more

10-Day Weather Forecast

Advertisements
Track Severe Weather on mobile